createdAt,value
2023-04-22T00:08:26.725Z,14.5
2023-04-22T00:23:36.857Z,14.3
2023-04-22T00:38:46.698Z,14.2
2023-04-22T00:53:56.182Z,14.1
2023-04-22T01:09:06.086Z,14
2023-04-22T01:24:15.842Z,13.8
2023-04-22T01:39:25.668Z,13.8
2023-04-22T01:54:40.419Z,13.8
2023-04-22T02:09:50.997Z,13.7
2023-04-22T02:25:00.511Z,13.7
2023-04-22T02:40:10.043Z,13.6
2023-04-22T02:55:19.621Z,13.4
2023-04-22T03:10:29.150Z,13.4
2023-04-22T03:25:38.424Z,13.3
2023-04-22T03:40:48.077Z,13.2
2023-04-22T03:55:59.002Z,13
2023-04-22T04:11:08.103Z,12.8
2023-04-22T04:26:17.623Z,12.6
2023-04-22T04:41:27.688Z,12.7
2023-04-22T04:56:37.181Z,12.6
2023-04-22T05:11:46.685Z,12.6
2023-04-22T05:26:56.241Z,12.7
2023-04-22T05:42:05.905Z,12.8
2023-04-22T05:57:15.669Z,13.1
2023-04-22T06:12:25.436Z,13.3
2023-04-22T06:27:34.957Z,13.7
2023-04-22T06:42:45.088Z,14.3
2023-04-22T06:57:55.153Z,14.8
2023-04-22T07:13:05.164Z,15.2
2023-04-22T07:28:15.358Z,15.5
2023-04-22T07:43:25.438Z,15.7
2023-04-22T07:58:34.859Z,15.9
2023-04-22T08:13:45.142Z,16.2
2023-04-22T08:28:55.231Z,16.6
2023-04-22T08:44:05.742Z,17.3
2023-04-22T08:59:15.627Z,17.8
2023-04-22T09:14:25.678Z,18.4
2023-04-22T09:29:35.529Z,18.8
2023-04-22T09:44:45.719Z,19.2
2023-04-22T09:59:55.419Z,19.4
2023-04-22T10:15:07.746Z,20.1
2023-04-22T10:30:17.945Z,20.3
2023-04-22T10:45:27.732Z,20.2
2023-04-22T11:00:46.274Z,20.4
2023-04-22T11:16:07.595Z,21
2023-04-22T11:31:18.718Z,21.4
2023-04-22T11:46:29.555Z,21.9
2023-04-22T12:01:40.271Z,22.3
2023-04-22T12:16:50.215Z,22.7
2023-04-22T12:32:00.711Z,23.1
2023-04-22T12:47:10.813Z,23.7
2023-04-22T13:02:20.732Z,24.4
2023-04-22T13:17:31.063Z,24.9
2023-04-22T13:32:40.938Z,25.4
2023-04-22T14:33:48.111Z,26.5
2023-04-22T14:48:58.197Z,25.3
2023-04-22T15:04:08.256Z,25.2
2023-04-22T15:19:19.795Z,26.2
2023-04-22T15:34:29.185Z,25.1
2023-04-22T15:49:39.819Z,26.5
2023-04-22T16:04:52.499Z,28.6
2023-04-22T16:20:02.884Z,29.5
2023-04-22T16:35:11.501Z,28.1
2023-04-22T16:50:19.553Z,25.5
2023-04-22T17:05:28.840Z,24.2
2023-04-22T17:20:38.357Z,23.4
2023-04-22T17:35:47.480Z,22.8
2023-04-22T17:50:56.826Z,22.4
2023-04-22T18:06:08.229Z,22.1
2023-04-22T18:21:17.433Z,21.8
2023-04-22T18:36:26.995Z,21.5
2023-04-22T18:51:36.419Z,21.2
2023-04-22T19:06:45.380Z,20.8
2023-04-22T19:21:56.089Z,20.4
2023-04-22T19:37:05.003Z,20.1
2023-04-22T19:52:14.800Z,19.9
2023-04-22T20:07:24.396Z,19.7
2023-04-22T20:22:34.248Z,19.5
2023-04-22T20:37:43.609Z,19.4
2023-04-22T20:52:53.250Z,19.1
2023-04-22T21:08:03.179Z,18.8
2023-04-22T21:23:13.400Z,18.4
2023-04-22T21:38:22.512Z,18
2023-04-22T21:53:31.947Z,17.9
2023-04-22T22:08:41.849Z,17.5
2023-04-22T22:23:51.148Z,17.3
2023-04-22T22:39:00.682Z,16.9
2023-04-22T22:54:09.707Z,16.5
2023-04-22T23:09:19.471Z,16.5
2023-04-22T23:24:29.706Z,16.5
2023-04-22T23:39:39.845Z,16.4
2023-04-22T23:54:49.521Z,16.5
